createdAt,value
2023-05-22T00:01:49.450Z,14.09
2023-05-22T00:04:21.503Z,14.04
2023-05-22T00:06:50.150Z,14.19
2023-05-22T00:09:19.566Z,14.19
2023-05-22T00:11:47.593Z,13.97
2023-05-22T00:14:15.835Z,14.04
2023-05-22T00:16:44.247Z,14.18
2023-05-22T00:19:17.381Z,14.23
2023-05-22T00:21:47.064Z,14.33
2023-05-22T00:24:15.061Z,14.46
2023-05-22T00:26:44.465Z,14.44
2023-05-22T00:29:12.489Z,14.25
2023-05-22T00:31:40.508Z,14.55
2023-05-22T00:34:08.625Z,14.68
2023-05-22T00:36:36.633Z,14.68
2023-05-22T00:39:04.784Z,14.62
2023-05-22T00:41:34.055Z,14.52
2023-05-22T00:44:03.896Z,14.42
2023-05-22T00:46:33.406Z,14.31
2023-05-22T00:49:01.537Z,14.35
2023-05-22T00:51:29.776Z,14.41
2023-05-22T00:53:58.776Z,14.46
2023-05-22T00:56:29.217Z,14.46
2023-05-22T00:58:57.529Z,14.57
2023-05-22T01:01:33.602Z,14.68
2023-05-22T01:04:02.267Z,14.66
2023-05-22T01:06:32.364Z,14.49
2023-05-22T01:09:01.615Z,14.51
2023-05-22T01:11:37.771Z,14.55
2023-05-22T01:14:12.178Z,14.50
2023-05-22T01:16:51.932Z,14.53
2023-05-22T01:19:41.682Z,14.36
2023-05-22T01:22:31.104Z,14.20
2023-05-22T01:25:17.174Z,14.41
2023-05-22T01:28:03.878Z,14.45
2023-05-22T01:30:50.071Z,14.29
2023-05-22T01:33:20.237Z,14.41
2023-05-22T01:35:54.219Z,14.13
2023-05-22T01:38:23.068Z,14.17
2023-05-22T01:40:51.725Z,14.12
2023-05-22T01:43:20.961Z,14.21
2023-05-22T01:45:50.685Z,14.06
2023-05-22T01:48:18.774Z,14.00
2023-05-22T01:50:52.705Z,14.05
2023-05-22T01:53:29.178Z,13.93
2023-05-22T01:56:02.728Z,13.94
2023-05-22T01:58:35.719Z,13.86
2023-05-22T02:01:05.626Z,13.92
2023-05-22T02:03:36.507Z,13.94
2023-05-22T02:06:07.437Z,14.00
2023-05-22T02:08:37.164Z,14.00
2023-05-22T02:11:06.533Z,14.24
2023-05-22T02:13:35.488Z,14.27
2023-05-22T02:16:06.416Z,14.09
2023-05-22T02:18:34.446Z,14.27
2023-05-22T02:21:03.413Z,14.28
2023-05-22T02:23:31.493Z,14.32
2023-05-22T02:25:59.520Z,14.24
2023-05-22T02:28:28.099Z,14.24
2023-05-22T02:30:56.168Z,14.09
2023-05-22T02:33:25.572Z,14.27
2023-05-22T02:35:53.548Z,14.32
2023-05-22T02:38:21.513Z,14.38
2023-05-22T02:40:49.879Z,14.07
2023-05-22T02:43:17.858Z,14.19
2023-05-22T02:45:46.011Z,14.20
2023-05-22T02:48:14.010Z,14.28
2023-05-22T02:50:44.344Z,14.20
2023-05-22T02:53:13.252Z,14.24
2023-05-22T02:55:41.874Z,14.07
2023-05-22T02:58:11.484Z,14.12
2023-05-22T03:00:39.701Z,14.16
2023-05-22T03:03:08.432Z,14.06
2023-05-22T03:05:36.649Z,14.10
2023-05-22T03:08:06.849Z,14.15
2023-05-22T03:10:34.806Z,14.08
2023-05-22T03:13:02.788Z,14.10
2023-05-22T03:15:30.925Z,14.00
2023-05-22T03:17:58.976Z,14.05
2023-05-22T03:20:27.009Z,13.85
2023-05-22T03:22:55.063Z,13.95
2023-05-22T03:25:24.434Z,14.05
2023-05-22T03:27:52.455Z,14.06
2023-05-22T03:30:20.523Z,13.98
2023-05-22T03:32:48.541Z,13.84
2023-05-22T03:35:19.723Z,13.87
2023-05-22T03:37:48.234Z,13.88
2023-05-22T03:40:16.478Z,13.82
2023-05-22T03:42:45.829Z,13.67
2023-05-22T03:45:13.873Z,13.62
2023-05-22T03:47:41.940Z,13.53
2023-05-22T03:50:11.150Z,13.48
2023-05-22T03:52:39.491Z,13.71
2023-05-22T03:55:09.059Z,13.87
2023-05-22T03:57:37.083Z,13.88
2023-05-22T04:00:10.004Z,13.70
2023-05-22T04:02:40.046Z,13.70
2023-05-22T04:05:09.513Z,13.55
2023-05-22T04:07:37.738Z,13.40
2023-05-22T04:10:06.501Z,13.51
2023-05-22T04:12:35.562Z,13.57
2023-05-22T04:15:03.601Z,13.78
2023-05-22T04:17:38.900Z,13.76
2023-05-22T04:20:10.390Z,13.68
2023-05-22T04:22:46.000Z,13.52
2023-05-22T04:25:14.079Z,13.53
2023-05-22T04:27:42.679Z,13.49
2023-05-22T04:30:11.597Z,13.19
2023-05-22T04:32:41.221Z,13.50
2023-05-22T04:35:10.198Z,13.63
2023-05-22T04:37:38.411Z,13.68
2023-05-22T04:40:08.551Z,13.62
2023-05-22T04:42:37.463Z,13.69
2023-05-22T04:45:06.218Z,13.51
2023-05-22T04:47:34.350Z,13.54
2023-05-22T04:50:04.053Z,13.59
2023-05-22T04:52:32.049Z,13.41
2023-05-22T04:55:01.106Z,13.64
2023-05-22T04:57:29.856Z,13.59
2023-05-22T04:59:58.299Z,13.74
2023-05-22T05:02:26.368Z,13.85
2023-05-22T05:04:54.427Z,13.92
2023-05-22T05:07:23.828Z,14.07
2023-05-22T05:09:51.961Z,14.23
2023-05-22T05:12:19.957Z,14.32
2023-05-22T05:14:47.986Z,14.42
2023-05-22T05:17:16.021Z,14.53
2023-05-22T05:19:43.994Z,14.63
2023-05-22T05:22:12.001Z,14.77
2023-05-22T05:24:41.480Z,14.90
2023-05-22T05:27:09.582Z,14.97
2023-05-22T05:29:37.633Z,15.16
2023-05-22T05:32:06.448Z,15.39
2023-05-22T05:34:34.547Z,15.62
2023-05-22T05:37:03.355Z,15.85
2023-05-22T05:39:31.333Z,16.10
2023-05-22T05:42:01.329Z,16.39
2023-05-22T05:44:29.296Z,16.69
2023-05-22T05:46:57.475Z,16.88
2023-05-22T05:49:25.461Z,17.07
2023-05-22T05:51:53.402Z,17.38
2023-05-22T05:54:22.064Z,17.49
2023-05-22T05:56:50.103Z,17.50
2023-05-22T05:59:19.496Z,17.81
2023-05-22T06:01:47.543Z,17.95
2023-05-22T06:04:15.718Z,17.95
2023-05-22T06:06:44.676Z,18.12
2023-05-22T06:09:12.836Z,18.44
2023-05-22T06:11:40.822Z,18.33
2023-05-22T06:14:10.077Z,18.47
2023-05-22T06:16:39.480Z,18.53
2023-05-22T06:19:07.573Z,18.51
2023-05-22T06:21:35.656Z,18.59
2023-05-22T06:24:03.705Z,18.67
2023-05-22T06:26:31.856Z,18.82
2023-05-22T06:28:59.868Z,18.98
2023-05-22T06:31:28.273Z,18.97
2023-05-22T06:33:57.739Z,19.11
2023-05-22T06:36:25.821Z,19.25
2023-05-22T06:38:54.948Z,19.17
2023-05-22T06:41:23.062Z,19.49
2023-05-22T06:43:51.012Z,19.54
2023-05-22T06:46:19.145Z,19.46
2023-05-22T06:48:47.136Z,19.45
2023-05-22T06:51:16.567Z,19.54
2023-05-22T06:53:44.571Z,19.52
2023-05-22T06:56:12.609Z,19.99
2023-05-22T06:58:41.260Z,19.74
2023-05-22T07:01:09.792Z,19.48
2023-05-22T07:03:39.337Z,19.91
2023-05-22T07:06:08.844Z,20.12
2023-05-22T07:08:38.350Z,19.81
2023-05-22T07:11:07.014Z,20.07
2023-05-22T07:13:35.131Z,20.36
2023-05-22T07:16:03.205Z,20.28
2023-05-22T07:18:31.487Z,20.63
2023-05-22T07:21:00.707Z,20.60
2023-05-22T07:23:28.704Z,20.79
2023-05-22T07:25:58.085Z,20.87
2023-05-22T07:28:26.132Z,20.70
2023-05-22T07:30:54.107Z,21.03
2023-05-22T07:33:22.243Z,21.23
2023-05-22T07:35:51.965Z,21.50
2023-05-22T07:38:20.068Z,21.54
2023-05-22T07:40:48.038Z,21.64
2023-05-22T07:43:17.365Z,21.84
2023-05-22T07:45:45.431Z,21.38
2023-05-22T07:48:13.585Z,21.77
2023-05-22T07:50:44.908Z,21.99
2023-05-22T07:53:13.071Z,21.72
2023-05-22T07:55:41.256Z,22.14
2023-05-22T07:58:10.971Z,22.40
2023-05-22T08:00:40.372Z,22.03
2023-05-22T08:03:08.591Z,22.28
2023-05-22T08:05:36.896Z,22.35
2023-05-22T08:08:05.192Z,22.20
2023-05-22T08:10:46.422Z,22.10
2023-05-22T08:13:16.937Z,22.19
2023-05-22T08:15:46.318Z,22.41
2023-05-22T08:18:14.338Z,22.34
2023-05-22T08:20:42.349Z,22.14
2023-05-22T08:23:10.480Z,22.36
2023-05-22T08:25:38.454Z,22.41
2023-05-22T08:28:06.615Z,22.55
2023-05-22T08:30:34.587Z,22.63
2023-05-22T08:33:04.057Z,22.39
2023-05-22T08:35:32.043Z,22.58
2023-05-22T08:38:00.048Z,22.79
2023-05-22T08:40:36.391Z,23.14
2023-05-22T08:43:06.015Z,22.26
2023-05-22T08:45:35.110Z,22.81
2023-05-22T08:48:06.756Z,22.83
2023-05-22T08:50:39.911Z,22.86
2023-05-22T08:53:09.420Z,23.06
2023-05-22T08:55:37.701Z,22.78
2023-05-22T08:58:06.241Z,23.04
2023-05-22T09:00:34.907Z,23.54
2023-05-22T09:03:03.620Z,23.45
2023-05-22T09:05:34.309Z,23.43
2023-05-22T09:08:15.997Z,23.66
2023-05-22T09:10:48.179Z,23.67
2023-05-22T09:13:25.915Z,23.74
2023-05-22T09:15:54.474Z,23.76
2023-05-22T09:18:26.439Z,23.29
2023-05-22T09:20:58.731Z,23.71
2023-05-22T09:23:29.575Z,23.78
2023-05-22T09:25:58.463Z,23.93
2023-05-22T09:28:27.137Z,24.29
2023-05-22T09:30:56.474Z,24.21
2023-05-22T09:33:25.736Z,24.36
2023-05-22T09:35:56.272Z,24.54
2023-05-22T09:38:28.120Z,24.43
2023-05-22T09:40:57.289Z,24.36
2023-05-22T09:43:25.982Z,24.67
2023-05-22T09:46:04.361Z,24.37
2023-05-22T09:48:36.067Z,24.24
2023-05-22T09:51:05.837Z,24.86
2023-05-22T09:53:34.865Z,25.02
2023-05-22T09:56:06.511Z,24.62
2023-05-22T09:58:36.734Z,24.88
2023-05-22T10:01:05.344Z,24.82
2023-05-22T10:03:35.414Z,24.94
2023-05-22T10:06:06.109Z,25.41
2023-05-22T10:08:42.824Z,25.12
2023-05-22T10:11:12.309Z,25.30
2023-05-22T10:13:42.481Z,25.26
2023-05-22T10:16:12.273Z,25.22
2023-05-22T10:18:41.741Z,25.28
2023-05-22T10:21:13.358Z,25.54
2023-05-22T10:23:42.834Z,25.93
2023-05-22T10:26:12.327Z,26.07
2023-05-22T10:28:46.281Z,25.91
2023-05-22T10:31:25.890Z,26.11
2023-05-22T10:33:58.470Z,25.88
2023-05-22T10:36:39.836Z,26.48
2023-05-22T10:39:25.432Z,26.17
2023-05-22T10:41:54.069Z,25.96
2023-05-22T10:44:23.984Z,26.06
2023-05-22T10:46:52.043Z,26.64
2023-05-22T10:49:24.482Z,26.49
2023-05-22T10:51:58.203Z,26.65
2023-05-22T10:54:42.314Z,26.23
2023-05-22T10:57:16.248Z,26.65
2023-05-22T10:59:44.334Z,26.84
2023-05-22T11:02:22.454Z,27.25
2023-05-22T11:04:50.891Z,27.27
2023-05-22T11:07:20.687Z,26.22
2023-05-22T11:09:48.992Z,26.55
2023-05-22T11:12:21.594Z,27.22
2023-05-22T11:14:51.850Z,28.07
2023-05-22T11:17:23.209Z,27.96
2023-05-22T11:20:06.427Z,27.53
2023-05-22T11:22:42.272Z,27.37
2023-05-22T11:25:12.253Z,26.75
2023-05-22T11:27:42.293Z,26.05
2023-05-22T11:30:12.179Z,25.85
2023-05-22T11:32:41.371Z,25.67
2023-05-22T11:35:10.029Z,25.66
2023-05-22T11:37:42.826Z,25.65
2023-05-22T11:40:11.975Z,25.45
2023-05-22T11:42:40.047Z,25.61
2023-05-22T11:45:09.288Z,25.40
2023-05-22T11:47:37.958Z,25.68
2023-05-22T11:50:07.385Z,25.68
2023-05-22T11:52:36.407Z,25.64
2023-05-22T11:55:07.908Z,25.70
2023-05-22T11:57:36.145Z,25.50
2023-05-22T12:00:06.584Z,25.57
2023-05-22T12:02:34.845Z,25.24
2023-05-22T12:05:02.865Z,25.40
2023-05-22T12:07:31.028Z,25.32
2023-05-22T12:10:00.277Z,25.07
2023-05-22T12:12:29.706Z,25.09
2023-05-22T12:14:58.925Z,24.98
2023-05-22T12:17:29.673Z,25.08
2023-05-22T12:20:01.555Z,24.86
2023-05-22T12:22:32.113Z,24.64
2023-05-22T12:25:00.085Z,24.73
2023-05-22T12:27:33.514Z,24.90
2023-05-22T12:30:10.374Z,24.82
2023-05-22T12:32:38.400Z,24.94
2023-05-22T12:35:07.132Z,25.22
2023-05-22T12:37:35.714Z,25.41
2023-05-22T12:40:05.317Z,25.25
2023-05-22T12:42:34.972Z,25.13
2023-05-22T12:45:02.954Z,25.12
2023-05-22T12:47:30.985Z,25.28
2023-05-22T12:49:59.086Z,25.41
2023-05-22T12:52:27.057Z,25.14
2023-05-22T12:54:54.998Z,25.24
2023-05-22T12:57:22.956Z,25.20
2023-05-22T12:59:52.239Z,25.06
2023-05-22T13:02:20.244Z,25.29
2023-05-22T13:04:48.216Z,25.56
2023-05-22T13:07:16.205Z,25.82
2023-05-22T13:09:44.166Z,26.05
2023-05-22T13:12:12.235Z,25.96
2023-05-22T13:14:40.649Z,26.29
2023-05-22T13:17:10.718Z,25.91
2023-05-22T13:19:38.752Z,26.55
2023-05-22T13:22:07.825Z,26.18
2023-05-22T13:24:35.955Z,25.84
2023-05-22T13:27:03.927Z,26.49
2023-05-22T13:29:32.892Z,26.78
2023-05-22T13:32:02.338Z,26.55
2023-05-22T13:34:31.822Z,26.95
2023-05-22T13:37:00.023Z,27.64
2023-05-22T13:39:28.022Z,27.61
2023-05-22T13:41:57.186Z,27.55
2023-05-22T13:44:26.225Z,27.23
2023-05-22T13:46:54.580Z,27.66
2023-05-22T13:49:22.592Z,27.70
2023-05-22T13:51:52.001Z,27.73
2023-05-22T13:54:19.977Z,27.91
2023-05-22T13:56:47.968Z,27.79
2023-05-22T13:59:16.037Z,27.72
2023-05-22T14:01:45.049Z,27.57
2023-05-22T14:04:13.283Z,28.09
2023-05-22T14:06:41.378Z,27.04
2023-05-22T14:09:11.378Z,27.49
2023-05-22T14:11:39.337Z,28.64
2023-05-22T14:14:07.982Z,28.12
2023-05-22T14:16:36.382Z,28.06
2023-05-22T14:19:05.337Z,28.33
2023-05-22T14:21:33.747Z,28.58
2023-05-22T14:24:04.485Z,28.22
2023-05-22T14:26:34.467Z,28.40
2023-05-22T14:29:03.835Z,28.29
2023-05-22T14:31:32.090Z,27.90
2023-05-22T14:34:00.528Z,27.54
2023-05-22T14:36:28.628Z,28.06
2023-05-22T14:38:58.023Z,28.03
2023-05-22T14:41:26.436Z,27.93
2023-05-22T14:43:55.806Z,28.11
2023-05-22T14:46:24.468Z,28.41
2023-05-22T14:48:53.123Z,28.63
2023-05-22T14:51:22.799Z,28.83
2023-05-22T14:53:50.806Z,27.95
2023-05-22T14:56:18.791Z,28.36
2023-05-22T14:58:46.759Z,28.47
2023-05-22T15:01:16.103Z,28.23
2023-05-22T15:03:44.596Z,28.28
2023-05-22T15:06:12.581Z,28.65
2023-05-22T15:08:40.521Z,28.51
2023-05-22T15:11:08.579Z,28.59
2023-05-22T15:13:36.623Z,28.99
2023-05-22T15:16:04.837Z,29.09
2023-05-22T15:18:34.180Z,28.47
2023-05-22T15:21:02.343Z,28.70
2023-05-22T15:23:30.292Z,28.37
2023-05-22T15:26:12.638Z,27.64
2023-05-22T15:28:40.999Z,27.76
2023-05-22T15:31:08.963Z,27.79
2023-05-22T15:33:39.138Z,27.64
2023-05-22T15:36:08.785Z,27.55
2023-05-22T15:38:36.818Z,27.76
2023-05-22T15:41:04.883Z,27.74
2023-05-22T15:43:34.803Z,28.07
2023-05-22T15:46:04.010Z,27.87
2023-05-22T15:48:32.662Z,27.91
2023-05-22T15:51:02.967Z,27.71
2023-05-22T15:53:30.906Z,27.72
2023-05-22T15:55:58.849Z,27.64
2023-05-22T15:58:28.520Z,27.88
2023-05-22T16:00:56.561Z,27.50
2023-05-22T16:03:25.085Z,27.29
2023-05-22T16:05:53.080Z,27.31
2023-05-22T16:08:23.067Z,27.73
2023-05-22T16:10:51.065Z,27.92
2023-05-22T16:13:19.693Z,27.52
2023-05-22T16:15:47.866Z,27.90
2023-05-22T16:18:17.772Z,27.55
2023-05-22T16:20:47.824Z,27.07
2023-05-22T16:23:17.699Z,27.05
2023-05-22T16:25:50.861Z,27.36
2023-05-22T16:28:19.929Z,27.30
2023-05-22T16:30:47.904Z,27.17
2023-05-22T16:33:15.871Z,27.20
2023-05-22T16:35:47.222Z,27.14
2023-05-22T16:38:15.320Z,26.90
2023-05-22T16:40:45.004Z,26.94
2023-05-22T16:43:14.952Z,26.79
2023-05-22T16:45:47.588Z,26.84
2023-05-22T16:48:15.962Z,26.55
2023-05-22T16:50:44.327Z,26.68
2023-05-22T16:53:12.430Z,26.36
2023-05-22T16:55:40.838Z,26.40
2023-05-22T16:58:09.666Z,26.13
2023-05-22T17:00:40.526Z,25.84
2023-05-22T17:03:09.808Z,25.78
2023-05-22T17:05:38.776Z,25.82
2023-05-22T17:08:07.263Z,25.60
2023-05-22T17:10:35.308Z,25.88
2023-05-22T17:13:03.373Z,25.83
2023-05-22T17:15:31.336Z,25.56
2023-05-22T17:18:00.849Z,25.62
2023-05-22T17:20:29.515Z,25.61
2023-05-22T17:22:57.633Z,25.31
2023-05-22T17:25:30.414Z,25.26
2023-05-22T17:28:00.033Z,25.38
2023-05-22T17:30:28.201Z,25.38
2023-05-22T17:32:58.149Z,24.91
2023-05-22T17:35:31.303Z,24.79
2023-05-22T17:38:00.947Z,25.00
2023-05-22T17:40:40.500Z,24.95
2023-05-22T17:43:19.315Z,24.77
2023-05-22T17:45:50.413Z,24.66
2023-05-22T17:48:27.532Z,24.69
2023-05-22T17:50:57.295Z,24.55
2023-05-22T17:53:27.077Z,24.36
2023-05-22T17:55:54.980Z,24.48
2023-05-22T17:58:23.406Z,24.43
2023-05-22T18:00:51.545Z,24.36
2023-05-22T18:03:21.745Z,24.34
2023-05-22T18:05:54.388Z,23.91
2023-05-22T18:08:27.272Z,22.97
2023-05-22T18:13:44.480Z,22.96
2023-05-22T18:16:14.511Z,23.00
2023-05-22T18:18:42.709Z,22.92
2023-05-22T18:21:11.927Z,22.41
2023-05-22T18:23:41.531Z,22.81
2023-05-22T18:26:09.921Z,22.97
2023-05-22T18:28:37.906Z,22.89
2023-05-22T18:31:05.983Z,22.87
2023-05-22T18:33:34.285Z,22.40
2023-05-22T18:36:02.256Z,22.61
2023-05-22T18:38:30.795Z,22.27
2023-05-22T18:41:00.164Z,22.37
2023-05-22T18:43:28.703Z,22.38
2023-05-22T18:45:57.904Z,22.57
2023-05-22T18:48:27.246Z,22.44
2023-05-22T18:50:57.434Z,22.19
2023-05-22T18:53:26.147Z,22.05
2023-05-22T18:55:54.793Z,22.02
2023-05-22T18:58:24.190Z,21.88
2023-05-22T19:00:55.462Z,21.94
2023-05-22T19:03:23.731Z,21.74
2023-05-22T19:05:51.735Z,21.72
2023-05-22T19:08:20.293Z,21.55
2023-05-22T19:10:48.244Z,21.49
2023-05-22T19:13:16.266Z,21.54
2023-05-22T19:15:47.322Z,21.53
2023-05-22T19:18:17.346Z,21.47
2023-05-22T19:20:45.427Z,21.47
2023-05-22T19:23:14.731Z,21.35
2023-05-22T19:25:42.895Z,21.17
2023-05-22T19:28:11.073Z,21.19
2023-05-22T19:30:39.727Z,21.06
2023-05-22T19:33:10.714Z,20.92
2023-05-22T19:35:38.934Z,20.78
2023-05-22T19:38:06.875Z,20.84
2023-05-22T19:40:34.837Z,20.39
2023-05-22T19:43:03.010Z,20.50
2023-05-22T19:45:30.996Z,20.58
2023-05-22T19:47:58.976Z,20.62
2023-05-22T19:50:28.427Z,20.47
2023-05-22T19:52:56.624Z,20.56
2023-05-22T19:55:24.807Z,20.35
2023-05-22T19:57:54.241Z,20.31
2023-05-22T20:00:35.312Z,20.25
2023-05-22T20:03:03.440Z,20.15
2023-05-22T20:05:32.908Z,19.97
2023-05-22T20:08:05.092Z,19.94
2023-05-22T20:10:35.989Z,19.93
2023-05-22T20:13:04.979Z,19.86
2023-05-22T20:15:33.112Z,19.77
2023-05-22T20:18:02.682Z,19.64
2023-05-22T20:20:32.182Z,19.60
2023-05-22T20:23:00.270Z,19.60
2023-05-22T20:25:28.304Z,19.57
2023-05-22T20:27:56.304Z,19.55
2023-05-22T20:30:24.622Z,19.40
2023-05-22T20:32:53.154Z,19.38
2023-05-22T20:35:22.202Z,19.37
2023-05-22T20:37:53.442Z,19.35
2023-05-22T20:40:22.763Z,19.40
2023-05-22T20:42:53.583Z,19.52
2023-05-22T20:45:21.913Z,19.49
2023-05-22T20:47:49.865Z,19.50
2023-05-22T20:50:18.547Z,19.13
2023-05-22T20:52:49.658Z,19.12
2023-05-22T20:55:19.124Z,19.25
2023-05-22T20:57:47.126Z,19.12
2023-05-22T21:00:18.333Z,19.20
2023-05-22T21:02:48.126Z,19.15
2023-05-22T21:05:16.157Z,18.78
2023-05-22T21:07:44.196Z,18.87
2023-05-22T21:10:12.777Z,18.84
2023-05-22T21:12:42.125Z,18.89
2023-05-22T21:15:11.293Z,18.83
2023-05-22T21:17:40.117Z,18.57
2023-05-22T21:20:09.372Z,18.64
2023-05-22T21:22:37.670Z,18.51
2023-05-22T21:25:07.164Z,18.57
2023-05-22T21:27:35.510Z,18.45
2023-05-22T21:30:05.342Z,18.25
2023-05-22T21:32:33.537Z,18.15
2023-05-22T21:35:01.817Z,18.21
2023-05-22T21:37:29.795Z,18.23
2023-05-22T21:39:57.753Z,18.18
2023-05-22T21:42:26.292Z,18.06
2023-05-22T21:44:54.382Z,17.98
2023-05-22T21:47:23.751Z,17.86
2023-05-22T21:49:51.705Z,17.76
2023-05-22T21:52:19.686Z,17.66
2023-05-22T21:54:47.660Z,17.44
2023-05-22T21:57:15.602Z,17.79
2023-05-22T21:59:43.573Z,17.78
2023-05-22T22:02:11.871Z,17.84
2023-05-22T22:04:41.282Z,17.81
2023-05-22T22:07:09.252Z,17.76
2023-05-22T22:09:37.221Z,17.60
2023-05-22T22:12:05.610Z,17.51
2023-05-22T22:14:33.579Z,17.47
2023-05-22T22:17:01.533Z,17.29
2023-05-22T22:19:29.604Z,17.45
2023-05-22T22:21:59.156Z,17.40
2023-05-22T22:24:27.185Z,17.35
2023-05-22T22:26:57.575Z,17.51
2023-05-22T22:29:26.210Z,17.54
2023-05-22T22:31:54.235Z,17.43
2023-05-22T22:34:22.225Z,17.40
2023-05-22T22:36:50.210Z,17.40
2023-05-22T22:39:19.512Z,17.39
2023-05-22T22:41:47.469Z,17.39
2023-05-22T22:44:15.437Z,17.22
2023-05-22T22:46:44.256Z,17.32
2023-05-22T22:49:12.261Z,17.03
2023-05-22T22:51:40.454Z,17.13
2023-05-22T22:54:08.389Z,17.20
2023-05-22T22:56:37.772Z,17.20
2023-05-22T22:59:05.720Z,17.27
2023-05-22T23:01:33.898Z,17.17
2023-05-22T23:04:01.941Z,17.19
2023-05-22T23:06:32.980Z,17.09
2023-05-22T23:09:03.949Z,17.04
2023-05-22T23:11:37.493Z,17.12
2023-05-22T23:14:07.856Z,17.12
2023-05-22T23:16:40.868Z,17.16
2023-05-22T23:19:10.657Z,17.09
2023-05-22T23:21:38.846Z,17.04
2023-05-22T23:24:07.628Z,17.00
2023-05-22T23:26:35.645Z,16.95
2023-05-22T23:29:03.709Z,17.02
2023-05-22T23:31:33.099Z,16.93
2023-05-22T23:34:01.190Z,17.02
2023-05-22T23:36:30.207Z,16.85
2023-05-22T23:38:58.134Z,16.88
2023-05-22T23:41:26.086Z,16.89
2023-05-22T23:43:54.050Z,16.93
2023-05-22T23:46:24.648Z,16.78
2023-05-22T23:48:54.274Z,16.50
2023-05-22T23:51:22.288Z,16.76
2023-05-22T23:53:50.207Z,16.66
2023-05-22T23:56:18.175Z,16.63
2023-05-22T23:58:46.102Z,16.65
